Time;durP1;ratioP1;P1;durP2;ratioP2;P2;SDS_P1;SDS_P2;PMS_P1;PMS_P2;Temp;Humidity;BMP_temperature;BMP_pressure;BME280_temperature;BME280_humidity;BME280_pressure;Samples;Min_cycle;Max_cycle;Signal;HPM_P1;HPM_P2
2023/07/07 05:10:58;;;;;;;;;;;;;;;;;;5089993;28;20363;-46
2023/07/07 05:13:25;;;;;;;;;;;;;;;;;;5090600;28;20018;-46
2023/07/07 05:15:51;;;;;;;;;;;;;;;;;;5090367;28;19924;-46
2023/07/07 05:18:16;;;;;;;;;;;;;;;;;;5090122;28;20604;-46
2023/07/07 05:20:42;;;;;;;;;;;;;;;;;;5090550;28;19912;-46
2023/07/07 05:23:09;;;;;;;;;;;;;;;;;;5090373;28;19904;-47
2023/07/07 05:25:35;;;;;;;;;;;;;;;;;;5090496;28;20007;-48
2023/07/07 05:28:01;;;;;;;;;;;;;;;;;;5060607;28;20058;-47
2023/07/07 05:30:27;;;;;;;;;;;;;;;;;;5090508;28;19920;-47
2023/07/07 05:32:53;;;;;;;;;;;;;;;;;;5091571;28;19908;-46
2023/07/07 05:35:19;;;;;;;;;;;;;;;;;;5091256;28;19999;-47
2023/07/07 05:37:45;;;;;;;;;;;;;;;;;;5081918;28;19999;-47
2023/07/07 05:40:11;;;;;;;;;;;;;;;;;;5075260;28;20073;-48
2023/07/07 05:42:37;;;;;;;;;;;;;;;;;;5091140;28;19912;-46
2023/07/07 05:45:03;;;;;;;;;;;;;;;;;;5089302;28;19908;-51
2023/07/07 05:47:29;;;;;;;;;;;;;;;;;;5090932;28;19977;-47
2023/07/07 05:49:56;;;;;;;;;;;;;;;;;;5090925;28;19947;-48
2023/07/07 05:52:22;;;;;;;;;;;;;;;;;;5088751;28;19914;-47
2023/07/07 05:54:50;;;;;;;;;;;;;;;;;;5090708;28;19916;-47
2023/07/07 05:57:16;;;;;;;;;;;;;;;;;;5089392;28;19917;-47
2023/07/07 05:59:42;;;;;;;;;;;;;;;;;;5090898;28;19941;-48
2023/07/07 06:02:08;;;;;;;;;;;;;;;;;;5087779;28;19965;-48
2023/07/07 06:04:34;;;;;;;;;;;;;;;;;;5091080;28;19912;-47
2023/07/07 06:07:00;;;;;;;;;;;;;;;;;;5091727;28;19912;-48
2023/07/07 06:09:26;;;;;;;;;;;;;;;;;;5070651;28;19916;-48
2023/07/07 06:11:52;;;;;;;;;;;;;;;;;;5070603;28;19981;-47
2023/07/07 06:14:18;;;;;;;;;;;;;;;;;;5070366;28;19966;-47
2023/07/07 06:16:44;;;;;;;;;;;;;;;;;;5074257;28;19912;-47
2023/07/07 06:19:10;;;;;;;;;;;;;;;;;;5090413;28;19935;-46
2023/07/07 06:21:35;;;;;;;;;;;;;;;;;;5090922;28;19912;-47
2023/07/07 06:24:02;;;;;;;;;;;;;;;;;;5090574;28;19912;-47
2023/07/07 06:26:28;;;;;;;;;;;;;;;;;;5090503;28;19944;-49
2023/07/07 06:28:54;;;;;;;;;;;;;;;;;;5090354;28;20286;-47
2023/07/07 06:31:22;;;;;;;;;;;;;;;;;;5089873;28;19959;-47
2023/07/07 06:33:48;;;;;;;;;;;;;;;;;;5090229;28;20390;-46
2023/07/07 06:36:14;;;;;;;;;;;;;;;;;;5092072;28;19913;-47
2023/07/07 06:38:40;;;;;;;;;;;;;;;;;;5088772;28;19951;-46
2023/07/07 06:41:06;;;;;;;;;;;;;;;;;;5072458;28;19912;-47
2023/07/07 06:43:32;;;;;;;;;;;;;;;;;;5087672;28;20264;-47
2023/07/07 06:45:58;;;;;;;;;;;;;;;;;;5069436;28;20035;-46
2023/07/07 06:48:24;;;;;;;;;;;;;;;;;;5090966;28;19915;-47
2023/07/07 06:50:50;;;;;;;;;;;;;;;;;;5089590;28;19912;-46
2023/07/07 06:53:16;;;;;;;;;;;;;;;;;;5087147;28;19922;-47
2023/07/07 06:55:43;;;;;;;;;;;;;;;;;;5088697;28;20377;-49
2023/07/07 06:58:09;;;;;;;;;;;;;;;;;;5082721;28;19916;-47
2023/07/07 07:00:35;;;;;;;;;;;;;;;;;;5089721;28;19995;-47
2023/07/07 07:03:01;;;;;;;;;;;;;;;;;;5087780;28;19912;-48
2023/07/07 07:05:27;;;;;;;;;;;;;;;;;;5090477;28;19936;-47
2023/07/07 07:07:53;;;;;;;;;;;;;;;;;;5089975;28;19920;-48
2023/07/07 07:10:18;;;;;;;;;;;;;;;;;;5081014;28;20292;-46
2023/07/07 07:12:44;;;;;;;;;;;;;;;;;;5068744;28;19920;-47
2023/07/07 07:15:10;;;;;;;;;;;;;;;;;;5090105;28;19919;-46
2023/07/07 07:17:36;;;;;;;;;;;;;;;;;;5090664;28;19908;-48
2023/07/07 07:20:02;;;;;;;;;;;;;;;;;;5090494;28;20433;-47
2023/07/07 07:22:28;;;;;;;;;;;;;;;;;;5090451;28;19908;-46
2023/07/07 07:24:54;;;;;;;;;;;;;;;;;;5090357;28;19909;-47
2023/07/07 07:27:20;;;;;;;;;;;;;;;;;;5075860;28;19960;-47
2023/07/07 07:29:46;;;;;;;;;;;;;;;;;;5069868;28;19920;-48
2023/07/07 07:32:13;;;;;;;;;;;;;;;;;;5069807;28;19916;-46
2023/07/07 07:34:39;;;;;;;;;;;;;;;;;;5069163;28;19908;-48
2023/07/07 07:37:05;;;;;;;;;;;;;;;;;;5066072;28;19912;-47
2023/07/07 07:39:31;;;;;;;;;;;;;;;;;;5067738;28;19916;-48
2023/07/07 07:41:57;;;;;;;;;;;;;;;;;;5069736;28;20007;-47
2023/07/07 07:44:23;;;;;;;;;;;;;;;;;;5069574;28;19908;-47
2023/07/07 07:46:49;;;;;;;;;;;;;;;;;;5069641;28;20406;-46
2023/07/07 07:49:14;;;;;;;;;;;;;;;;;;5069733;28;19908;-47
2023/07/07 07:51:40;;;;;;;;;;;;;;;;;;5069698;28;19916;-48
2023/07/07 07:54:06;;;;;;;;;;;;;;;;;;5063622;28;19951;-46
2023/07/07 07:56:33;;;;;;;;;;;;;;;;;;5067204;28;19923;-50
2023/07/07 07:58:58;;;;;;;;;;;;;;;;;;5068157;28;19978;-47
2023/07/07 08:01:24;;;;;;;;;;;;;;;;;;5066824;28;20836;-49
2023/07/07 08:03:50;;;;;;;;;;;;;;;;;;5067720;28;19917;-47
2023/07/07 08:06:16;;;;;;;;;;;;;;;;;;5068432;28;20016;-50
2023/07/07 08:08:42;;;;;;;;;;;;;;;;;;5050255;28;19958;-47
2023/07/07 08:11:09;;;;;;;;;;;;;;;;;;5100843;28;19926;-49
2023/07/07 08:13:35;;;;;;;;;;;;;;;;;;5109293;28;19908;-50
2023/07/07 08:16:02;;;;;;;;;;;;;;;;;;5088339;28;19920;-50
2023/07/07 08:18:28;;;;;;;;;;;;;;;;;;5082690;28;19916;-46
2023/07/07 08:20:54;;;;;;;;;;;;;;;;;;5102144;28;19908;-48
2023/07/07 08:23:21;;;;;;;;;;;;;;;;;;5112453;28;19957;-46
2023/07/07 08:25:48;;;;;;;;;;;;;;;;;;5111907;28;19958;-46
2023/07/07 08:28:14;;;;;;;;;;;;;;;;;;5106944;28;19922;-48
2023/07/07 08:30:40;;;;;;;;;;;;;;;;;;5080696;28;19916;-51
2023/07/07 08:33:07;;;;;;;;;;;;;;;;;;5086237;28;19916;-46
2023/07/07 08:35:34;;;;;;;;;;;;;;;;;;5091526;28;19948;-47
2023/07/07 08:38:01;;;;;;;;;;;;;;;;;;5085598;28;20552;-50
2023/07/07 08:40:27;;;;;;;;;;;;;;;;;;5091080;28;19928;-46
2023/07/07 08:42:54;;;;;;;;;;;;;;;;;;5078839;28;20010;-48
2023/07/07 08:45:19;;;;;;;;;;;;;;;;;;5070871;28;19932;-47
2023/07/07 08:47:45;;;;;;;;;;;;;;;;;;5099006;28;19920;-50
2023/07/07 08:50:12;;;;;;;;;;;;;;;;;;5087143;28;19948;-50
2023/07/07 08:52:39;;;;;;;;;;;;;;;;;;5090533;28;19918;-47
2023/07/07 08:55:05;;;;;;;;;;;;;;;;;;5086284;28;19927;-47
2023/07/07 08:57:31;;;;;;;;;;;;;;;;;;5088725;28;19916;-47
2023/07/07 08:59:57;;;;;;;;;;;;;;;;;;5090822;28;19912;-50
2023/07/07 09:02:23;;;;;;;;;;;;;;;;;;5079869;28;20621;-50
2023/07/07 09:04:50;;;;;;;;;;;;;;;;;;5094282;28;19924;-47
2023/07/07 09:07:15;;;;;;;;;;;;;;;;;;5107988;28;20018;-50
2023/07/07 09:09:41;;;;;;;;;;;;;;;;;;5090641;28;19998;-47
2023/07/07 09:12:08;;;;;;;;;;;;;;;;;;5091260;28;20294;-49
2023/07/07 09:14:34;;;;;;;;;;;;;;;;;;5090144;28;19916;-48
2023/07/07 09:17:02;;;;;;;;;;;;;;;;;;5089478;28;19935;-48
2023/07/07 09:19:28;;;;;;;;;;;;;;;;;;5090690;28;20441;-50
2023/07/07 09:21:54;;;;;;;;;;;;;;;;;;5089005;28;19955;-48
2023/07/07 09:24:20;;;;;;;;;;;;;;;;;;5088991;28;19947;-51
2023/07/07 09:26:45;;;;;;;;;;;;;;;;;;5087796;28;20413;-51
2023/07/07 09:29:12;;;;;;;;;;;;;;;;;;5088314;28;19965;-48
2023/07/07 09:31:38;;;;;;;;;;;;;;;;;;5089768;28;19943;-47
2023/07/07 09:34:04;;;;;;;;;;;;;;;;;;5086008;28;19966;-48
2023/07/07 09:36:30;;;;;;;;;;;;;;;;;;5089317;28;19966;-49
2023/07/07 09:38:56;;;;;;;;;;;;;;;;;;5089631;28;20042;-48
2023/07/07 09:41:22;;;;;;;;;;;;;;;;;;5088862;28;20402;-48
2023/07/07 09:43:48;;;;;;;;;;;;;;;;;;5064307;28;19917;-47
2023/07/07 09:46:14;;;;;;;;;;;;;;;;;;5086053;28;20414;-49
2023/07/07 09:48:39;;;;;;;;;;;;;;;;;;5082682;28;19916;-47
2023/07/07 09:51:05;;;;;;;;;;;;;;;;;;5090127;28;20435;-46
2023/07/07 09:53:31;;;;;;;;;;;;;;;;;;5088931;28;19919;-47
2023/07/07 09:55:57;;;;;;;;;;;;;;;;;;5089782;28;19916;-47
2023/07/07 09:58:24;;;;;;;;;;;;;;;;;;5088525;28;19957;-46
2023/07/07 10:00:51;;;;;;;;;;;;;;;;;;5088777;28;20071;-47
2023/07/07 10:03:17;;;;;;;;;;;;;;;;;;5089485;28;19916;-49
2023/07/07 10:05:44;;;;;;;;;;;;;;;;;;5089630;28;19923;-49
2023/07/07 10:08:12;;;;;;;;;;;;;;;;;;5089903;28;20214;-46
2023/07/07 10:10:37;;;;;;;;;;;;;;;;;;5089697;28;19966;-47
2023/07/07 10:13:03;;;;;;;;;;;;;;;;;;5090204;28;20019;-46
2023/07/07 10:15:29;;;;;;;;;;;;;;;;;;5088136;28;19939;-47
2023/07/07 10:17:55;;;;;;;;;;;;;;;;;;5090364;28;19908;-47
2023/07/07 10:20:21;;;;;;;;;;;;;;;;;;5088542;28;19963;-48
2023/07/07 10:22:47;;;;;;;;;;;;;;;;;;5090265;28;20397;-48
2023/07/07 10:25:13;;;;;;;;;;;;;;;;;;5089780;28;19995;-48
2023/07/07 10:27:39;;;;;;;;;;;;;;;;;;5087646;28;19916;-48
2023/07/07 10:30:05;;;;;;;;;;;;;;;;;;5088022;28;19922;-50
2023/07/07 10:32:31;;;;;;;;;;;;;;;;;;5091059;28;19916;-48
2023/07/07 10:34:57;;;;;;;;;;;;;;;;;;5088471;28;19922;-47
2023/07/07 10:37:24;;;;;;;;;;;;;;;;;;5090017;28;19916;-48
2023/07/07 10:39:49;;;;;;;;;;;;;;;;;;5090301;28;20011;-47
2023/07/07 10:42:15;;;;;;;;;;;;;;;;;;5089912;28;20008;-47
2023/07/07 10:44:42;;;;;;;;;;;;;;;;;;5090902;28;19931;-47
2023/07/07 10:47:08;;;;;;;;;;;;;;;;;;5091168;28;20003;-48
2023/07/07 10:49:34;;;;;;;;;;;;;;;;;;5090334;28;19999;-47
2023/07/07 10:52:00;;;;;;;;;;;;;;;;;;5090995;28;19934;-50
2023/07/07 10:54:26;;;;;;;;;;;;;;;;;;5091048;28;19912;-51
2023/07/07 10:56:55;;;;;;;;;;;;;;;;;;5090172;28;19908;-48
2023/07/07 10:59:21;;;;;;;;;;;;;;;;;;5085809;28;19916;-47
2023/07/07 11:01:47;;;;;;;;;;;;;;;;;;5090691;28;19912;-46
2023/07/07 11:04:13;;;;;;;;;;;;;;;;;;5089331;28;19912;-47
2023/07/07 11:06:39;;;;;;;;;;;;;;;;;;5086327;28;19916;-48
2023/07/07 11:09:05;;;;;;;;;;;;;;;;;;5083574;28;19916;-46
2023/07/07 11:11:31;;;;;;;;;;;;;;;;;;5086190;28;19988;-49
2023/07/07 11:13:57;;;;;;;;;;;;;;;;;;5084541;28;19916;-49
2023/07/07 11:16:23;;;;;;;;;;;;;;;;;;5085051;28;19920;-46
2023/07/07 11:18:49;;;;;;;;;;;;;;;;;;5083806;28;19917;-46
2023/07/07 11:21:15;;;;;;;;;;;;;;;;;;5084779;28;19920;-46
2023/07/07 11:23:41;;;;;;;;;;;;;;;;;;5084898;28;19953;-49
2023/07/07 11:26:07;;;;;;;;;;;;;;;;;;5082782;28;19920;-47
2023/07/07 11:28:33;;;;;;;;;;;;;;;;;;5083325;28;19955;-47
2023/07/07 11:30:59;;;;;;;;;;;;;;;;;;5080396;28;20034;-47
2023/07/07 11:33:25;;;;;;;;;;;;;;;;;;5087192;28;19912;-47
2023/07/07 11:35:51;;;;;;;;;;;;;;;;;;5081903;28;19919;-48
2023/07/07 11:38:17;;;;;;;;;;;;;;;;;;5085023;28;19969;-48
2023/07/07 11:40:44;;;;;;;;;;;;;;;;;;5083834;28;20356;-47
2023/07/07 11:43:10;;;;;;;;;;;;;;;;;;5067642;28;20307;-49
2023/07/07 11:45:36;;;;;;;;;;;;;;;;;;5086456;28;19944;-50
2023/07/07 11:48:03;;;;;;;;;;;;;;;;;;5087556;28;19913;-50
2023/07/07 11:50:28;;;;;;;;;;;;;;;;;;5087481;28;20668;-47
2023/07/07 11:52:54;;;;;;;;;;;;;;;;;;5087637;28;19908;-48
2023/07/07 11:55:20;;;;;;;;;;;;;;;;;;5087631;28;19916;-47
2023/07/07 11:57:46;;;;;;;;;;;;;;;;;;5087235;28;19908;-48
2023/07/07 12:00:12;;;;;;;;;;;;;;;;;;5087575;28;19961;-46
2023/07/07 12:02:38;;;;;;;;;;;;;;;;;;5087648;28;19915;-48
2023/07/07 12:05:04;;;;;;;;;;;;;;;;;;5087739;28;20234;-48
2023/07/07 12:07:30;;;;;;;;;;;;;;;;;;5087510;28;19920;-50
2023/07/07 12:09:57;;;;;;;;;;;;;;;;;;5093487;28;19916;-46
2023/07/07 12:12:23;;;;;;;;;;;;;;;;;;5107674;28;20488;-47
2023/07/07 12:14:50;;;;;;;;;;;;;;;;;;5107469;28;19919;-47
2023/07/07 12:17:16;;;;;;;;;;;;;;;;;;5107550;28;19912;-46
2023/07/07 12:19:41;;;;;;;;;;;;;;;;;;5107527;28;20362;-47
2023/07/07 12:22:09;;;;;;;;;;;;;;;;;;5089440;28;19919;-46
2023/07/07 12:24:38;;;;;;;;;;;;;;;;;;5107943;28;19915;-47
2023/07/07 12:27:08;;;;;;;;;;;;;;;;;;5107679;28;19997;-49
2023/07/07 12:29:35;;;;;;;;;;;;;;;;;;5107801;28;19932;-49
2023/07/07 12:32:02;;;;;;;;;;;;;;;;;;5107531;28;19908;-47
2023/07/07 12:34:29;;;;;;;;;;;;;;;;;;5107563;28;21065;-46
2023/07/07 12:36:56;;;;;;;;;;;;;;;;;;5107451;28;19918;-47
2023/07/07 12:39:22;;;;;;;;;;;;;;;;;;5107351;28;19908;-48
2023/07/07 12:41:48;;;;;;;;;;;;;;;;;;5107196;28;19907;-46
2023/07/07 12:44:14;;;;;;;;;;;;;;;;;;5107611;28;19912;-47
2023/07/07 12:46:40;;;;;;;;;;;;;;;;;;5107371;28;20030;-47
2023/07/07 12:49:06;;;;;;;;;;;;;;;;;;5107876;28;19922;-46
2023/07/07 12:51:32;;;;;;;;;;;;;;;;;;5107281;28;19934;-50
2023/07/07 12:53:58;;;;;;;;;;;;;;;;;;5107768;28;19930;-47
2023/07/07 12:56:24;;;;;;;;;;;;;;;;;;5107051;28;19912;-47
2023/07/07 12:58:51;;;;;;;;;;;;;;;;;;5088579;28;19912;-47
2023/07/07 13:01:17;;;;;;;;;;;;;;;;;;5108001;28;20374;-47
2023/07/07 13:03:43;;;;;;;;;;;;;;;;;;5110891;28;19911;-47
2023/07/07 13:06:10;;;;;;;;;;;;;;;;;;5107904;28;19912;-47
2023/07/07 13:08:36;;;;;;;;;;;;;;;;;;5088167;28;19912;-50
2023/07/07 13:11:02;;;;;;;;;;;;;;;;;;5088256;28;19920;-50
2023/07/07 13:13:28;;;;;;;;;;;;;;;;;;5088818;28;20011;-49
2023/07/07 13:15:54;;;;;;;;;;;;;;;;;;5089535;28;19904;-48
2023/07/07 13:18:19;;;;;;;;;;;;;;;;;;5088987;28;20437;-47
2023/07/07 13:20:45;;;;;;;;;;;;;;;;;;5088613;28;19908;-52
2023/07/07 13:23:11;;;;;;;;;;;;;;;;;;5088584;28;19912;-47
2023/07/07 13:25:37;;;;;;;;;;;;;;;;;;5088100;28;19908;-47
2023/07/07 13:28:03;;;;;;;;;;;;;;;;;;5088496;28;20461;-47
2023/07/07 13:30:29;;;;;;;;;;;;;;;;;;5088877;28;19912;-48
2023/07/07 13:32:55;;;;;;;;;;;;;;;;;;5088943;28;19919;-48
2023/07/07 13:35:22;;;;;;;;;;;;;;;;;;5089001;28;19916;-47
2023/07/07 13:37:49;;;;;;;;;;;;;;;;;;5088183;28;19931;-47
2023/07/07 13:40:15;;;;;;;;;;;;;;;;;;5088018;28;19923;-48
2023/07/07 13:42:41;;;;;;;;;;;;;;;;;;5088161;28;19924;-49
2023/07/07 13:45:07;;;;;;;;;;;;;;;;;;5088316;28;20446;-47
2023/07/07 13:47:33;;;;;;;;;;;;;;;;;;5088131;28;19965;-48
2023/07/07 13:50:01;;;;;;;;;;;;;;;;;;5087934;28;19912;-48
2023/07/07 13:52:27;;;;;;;;;;;;;;;;;;5088191;28;19919;-47
2023/07/07 13:54:53;;;;;;;;;;;;;;;;;;5088782;28;19909;-51
2023/07/07 13:57:18;;;;;;;;;;;;;;;;;;5088011;28;19915;-47
2023/07/07 13:59:44;;;;;;;;;;;;;;;;;;5087601;28;19912;-46
2023/07/07 14:02:11;;;;;;;;;;;;;;;;;;5069575;28;19912;-47
2023/07/07 14:04:38;;;;;;;;;;;;;;;;;;5087821;28;20212;-47
2023/07/07 14:07:03;;;;;;;;;;;;;;;;;;5087945;28;19912;-47
2023/07/07 14:09:29;;;;;;;;;;;;;;;;;;5087359;28;19912;-48
2023/07/07 14:11:56;;;;;;;;;;;;;;;;;;5087894;28;20294;-49
2023/07/07 14:14:22;;;;;;;;;;;;;;;;;;5088074;28;19915;-48
2023/07/07 14:16:48;;;;;;;;;;;;;;;;;;5087669;28;19912;-50
2023/07/07 14:19:14;;;;;;;;;;;;;;;;;;5087776;28;20320;-47
2023/07/07 14:21:40;;;;;;;;;;;;;;;;;;5087641;28;19912;-49
2023/07/07 14:24:07;;;;;;;;;;;;;;;;;;5087119;28;20321;-51
2023/07/07 14:26:33;;;;;;;;;;;;;;;;;;5087655;28;19912;-47
2023/07/07 14:29:00;;;;;;;;;;;;;;;;;;5087064;28;20321;-48
2023/07/07 14:31:26;;;;;;;;;;;;;;;;;;5087342;28;20416;-50
2023/07/07 14:33:55;;;;;;;;;;;;;;;;;;5087855;28;20213;-47
2023/07/07 14:36:20;;;;;;;;;;;;;;;;;;5087696;28;19977;-48
2023/07/07 14:38:46;;;;;;;;;;;;;;;;;;5087042;28;19916;-49
2023/07/07 14:41:12;;;;;;;;;;;;;;;;;;5087430;28;19909;-47
2023/07/07 14:43:38;;;;;;;;;;;;;;;;;;5087024;28;19918;-47
2023/07/07 14:46:04;;;;;;;;;;;;;;;;;;5087025;28;20375;-47
2023/07/07 14:48:31;;;;;;;;;;;;;;;;;;5086699;28;19952;-47
2023/07/07 14:50:58;;;;;;;;;;;;;;;;;;5086827;28;20109;-48
2023/07/07 14:53:24;;;;;;;;;;;;;;;;;;5087642;28;20381;-48
2023/07/07 14:55:51;;;;;;;;;;;;;;;;;;5087406;28;20027;-47
2023/07/07 14:58:17;;;;;;;;;;;;;;;;;;5086796;28;19961;-50
2023/07/07 15:00:45;;;;;;;;;;;;;;;;;;5086673;28;20003;-46
2023/07/07 15:03:12;;;;;;;;;;;;;;;;;;5085478;28;19918;-49
2023/07/07 15:05:40;;;;;;;;;;;;;;;;;;5067243;28;19920;-47
2023/07/07 15:08:06;;;;;;;;;;;;;;;;;;5067392;28;19919;-47
2023/07/07 15:10:32;;;;;;;;;;;;;;;;;;5086268;28;20019;-50
2023/07/07 15:12:58;;;;;;;;;;;;;;;;;;5086602;28;20480;-48
2023/07/07 15:15:23;;;;;;;;;;;;;;;;;;5086512;28;20439;-49
2023/07/07 15:17:49;;;;;;;;;;;;;;;;;;5086145;28;19944;-50
2023/07/07 15:20:15;;;;;;;;;;;;;;;;;;5086274;28;19912;-48
2023/07/07 15:22:43;;;;;;;;;;;;;;;;;;5086356;28;19912;-49
2023/07/07 15:25:09;;;;;;;;;;;;;;;;;;5085393;28;20032;-49
2023/07/07 15:27:35;;;;;;;;;;;;;;;;;;5086795;28;19923;-46
2023/07/07 15:30:00;;;;;;;;;;;;;;;;;;5086003;28;19943;-50
2023/07/07 15:32:26;;;;;;;;;;;;;;;;;;5086020;28;19912;-50
2023/07/07 15:34:52;;;;;;;;;;;;;;;;;;5086044;28;19978;-49
2023/07/07 15:37:18;;;;;;;;;;;;;;;;;;5086101;28;19918;-48
2023/07/07 15:39:44;;;;;;;;;;;;;;;;;;5085707;28;20340;-48
2023/07/07 15:42:10;;;;;;;;;;;;;;;;;;5086114;28;19951;-50
2023/07/07 15:44:36;;;;;;;;;;;;;;;;;;5086504;28;19940;-47
2023/07/07 15:47:03;;;;;;;;;;;;;;;;;;5085572;28;19916;-47
2023/07/07 15:49:29;;;;;;;;;;;;;;;;;;5072489;28;19916;-47
2023/07/07 15:51:58;;;;;;;;;;;;;;;;;;5065135;28;19961;-51
2023/07/07 15:54:23;;;;;;;;;;;;;;;;;;5063390;28;19912;-47
2023/07/07 15:56:53;;;;;;;;;;;;;;;;;;5064912;28;19919;-47
2023/07/07 15:59:19;;;;;;;;;;;;;;;;;;5063786;28;19916;-46
2023/07/07 16:01:46;;;;;;;;;;;;;;;;;;5053361;28;20415;-49
2023/07/07 16:04:11;;;;;;;;;;;;;;;;;;5055282;28;20383;-46
2023/07/07 16:06:37;;;;;;;;;;;;;;;;;;5064674;28;19965;-50
2023/07/07 16:09:04;;;;;;;;;;;;;;;;;;5066061;28;19908;-49
2023/07/07 16:11:30;;;;;;;;;;;;;;;;;;5064380;28;20330;-47
2023/07/07 16:13:56;;;;;;;;;;;;;;;;;;5045645;28;20406;-46
2023/07/07 16:16:25;;;;;;;;;;;;;;;;;;5063704;28;20043;-48
2023/07/07 16:18:52;;;;;;;;;;;;;;;;;;5065660;28;19919;-49
2023/07/07 16:21:17;;;;;;;;;;;;;;;;;;5055235;28;19923;-48
2023/07/07 16:23:44;;;;;;;;;;;;;;;;;;5049312;28;19908;-49
2023/07/07 16:26:11;;;;;;;;;;;;;;;;;;5063762;28;20413;-50
2023/07/07 16:28:37;;;;;;;;;;;;;;;;;;5074482;28;19916;-47
2023/07/07 16:31:03;;;;;;;;;;;;;;;;;;5065346;28;20350;-46
2023/07/07 16:33:29;;;;;;;;;;;;;;;;;;5060285;28;19928;-48
2023/07/07 16:35:56;;;;;;;;;;;;;;;;;;5060859;28;19966;-47
2023/07/07 16:38:22;;;;;;;;;;;;;;;;;;5067060;28;19920;-49
2023/07/07 16:40:47;;;;;;;;;;;;;;;;;;5063475;28;19917;-46
2023/07/07 16:43:13;;;;;;;;;;;;;;;;;;5048501;28;20055;-49
2023/07/07 16:45:39;;;;;;;;;;;;;;;;;;5066332;28;19916;-47
2023/07/07 16:48:05;;;;;;;;;;;;;;;;;;5080076;28;20018;-49
2023/07/07 16:50:31;;;;;;;;;;;;;;;;;;5064856;28;19921;-50
2023/07/07 16:52:58;;;;;;;;;;;;;;;;;;5082551;28;19920;-46
2023/07/07 16:55:24;;;;;;;;;;;;;;;;;;5081615;28;20008;-47
2023/07/07 16:57:50;;;;;;;;;;;;;;;;;;5081568;28;20007;-46
2023/07/07 17:00:16;;;;;;;;;;;;;;;;;;5079028;28;19916;-47
2023/07/07 17:02:41;;;;;;;;;;;;;;;;;;5065112;28;20026;-49
2023/07/07 17:05:08;;;;;;;;;;;;;;;;;;5067219;28;20010;-47
2023/07/07 17:07:35;;;;;;;;;;;;;;;;;;5067973;28;19924;-47
2023/07/07 17:10:01;;;;;;;;;;;;;;;;;;5070801;28;20348;-48
2023/07/07 17:12:27;;;;;;;;;;;;;;;;;;5096940;28;19912;-47
2023/07/07 17:14:53;;;;;;;;;;;;;;;;;;5072251;28;19919;-46
2023/07/07 17:17:20;;;;;;;;;;;;;;;;;;5082124;28;19924;-47
2023/07/07 17:19:46;;;;;;;;;;;;;;;;;;5081816;28;19920;-47
2023/07/07 17:22:12;;;;;;;;;;;;;;;;;;5082297;28;19927;-46
2023/07/07 17:24:38;;;;;;;;;;;;;;;;;;5077963;28;19916;-46
2023/07/07 17:27:04;;;;;;;;;;;;;;;;;;5083881;28;20410;-48
2023/07/07 17:29:32;;;;;;;;;;;;;;;;;;5084839;28;19915;-46
2023/07/07 17:31:59;;;;;;;;;;;;;;;;;;5075809;28;20347;-47
2023/07/07 17:34:25;;;;;;;;;;;;;;;;;;5077167;28;19959;-48
2023/07/07 17:36:51;;;;;;;;;;;;;;;;;;5076621;28;19921;-46
2023/07/07 17:39:19;;;;;;;;;;;;;;;;;;5072599;28;19916;-48
2023/07/07 17:41:46;;;;;;;;;;;;;;;;;;5076211;28;19958;-47
2023/07/07 17:44:12;;;;;;;;;;;;;;;;;;5084662;28;19989;-49
2023/07/07 17:46:40;;;;;;;;;;;;;;;;;;5075480;28;19924;-46
2023/07/07 17:49:06;;;;;;;;;;;;;;;;;;5064575;28;19963;-45
2023/07/07 17:51:34;;;;;;;;;;;;;;;;;;5065429;28;20298;-47
2023/07/07 17:54:00;;;;;;;;;;;;;;;;;;5063189;28;19912;-46
2023/07/07 17:56:25;;;;;;;;;;;;;;;;;;5046983;28;20519;-46
2023/07/07 17:58:51;;;;;;;;;;;;;;;;;;5062533;28;19924;-48
2023/07/07 18:01:17;;;;;;;;;;;;;;;;;;5053309;28;19921;-46
2023/07/07 18:03:43;;;;;;;;;;;;;;;;;;5068898;28;19961;-44
2023/07/07 18:06:09;;;;;;;;;;;;;;;;;;5047539;28;19908;-50
2023/07/07 18:08:36;;;;;;;;;;;;;;;;;;5055346;28;19920;-49
2023/07/07 18:11:02;;;;;;;;;;;;;;;;;;5094562;28;20018;-48
2023/07/07 18:13:28;;;;;;;;;;;;;;;;;;5083632;28;20315;-47
2023/07/07 18:15:55;;;;;;;;;;;;;;;;;;5083406;28;20370;-50
2023/07/07 18:18:20;;;;;;;;;;;;;;;;;;5081474;28;20417;-47
2023/07/07 18:20:46;;;;;;;;;;;;;;;;;;5086741;28;19927;-46
2023/07/07 18:23:13;;;;;;;;;;;;;;;;;;5072017;28;19959;-48
2023/07/07 18:25:39;;;;;;;;;;;;;;;;;;5080399;28;19920;-48
2023/07/07 18:28:05;;;;;;;;;;;;;;;;;;5082585;28;19977;-48
2023/07/07 18:30:31;;;;;;;;;;;;;;;;;;5083676;28;19922;-50
2023/07/07 18:32:58;;;;;;;;;;;;;;;;;;5092045;28;19919;-46
2023/07/07 18:35:24;;;;;;;;;;;;;;;;;;5094012;28;19959;-48
2023/07/07 18:37:50;;;;;;;;;;;;;;;;;;5084876;28;20090;-47
2023/07/07 18:40:17;;;;;;;;;;;;;;;;;;5065465;28;20389;-47
2023/07/07 18:42:43;;;;;;;;;;;;;;;;;;5083691;28;20105;-49
2023/07/07 18:45:09;;;;;;;;;;;;;;;;;;5084634;28;20364;-48
2023/07/07 18:47:34;;;;;;;;;;;;;;;;;;5065778;28;19916;-48
2023/07/07 18:50:01;;;;;;;;;;;;;;;;;;5065244;28;19939;-48
2023/07/07 18:52:27;;;;;;;;;;;;;;;;;;5085116;28;19918;-47
2023/07/07 18:54:56;;;;;;;;;;;;;;;;;;5082538;28;19914;-45
2023/07/07 18:57:22;;;;;;;;;;;;;;;;;;5088963;28;19916;-48
2023/07/07 18:59:48;;;;;;;;;;;;;;;;;;5092263;28;19920;-49
2023/07/07 19:02:14;;;;;;;;;;;;;;;;;;5084675;28;20402;-46
2023/07/07 19:04:40;;;;;;;;;;;;;;;;;;5092608;28;20076;-47
2023/07/07 19:07:07;;;;;;;;;;;;;;;;;;5084054;28;19916;-46
2023/07/07 19:09:33;;;;;;;;;;;;;;;;;;5086652;28;19913;-48
2023/07/07 19:11:59;;;;;;;;;;;;;;;;;;5102881;28;19924;-45
2023/07/07 19:14:25;;;;;;;;;;;;;;;;;;5099317;28;20403;-46
2023/07/07 19:16:52;;;;;;;;;;;;;;;;;;5094691;28;19930;-45
2023/07/07 19:19:18;;;;;;;;;;;;;;;;;;5083207;28;20372;-46
2023/07/07 19:21:44;;;;;;;;;;;;;;;;;;5090797;28;19922;-45
2023/07/07 19:24:10;;;;;;;;;;;;;;;;;;5084773;28;19983;-45
2023/07/07 19:26:36;;;;;;;;;;;;;;;;;;5085533;28;20406;-46
2023/07/07 19:29:03;;;;;;;;;;;;;;;;;;5083801;28;19923;-46
2023/07/07 19:31:29;;;;;;;;;;;;;;;;;;5084708;28;19952;-46
2023/07/07 19:33:55;;;;;;;;;;;;;;;;;;5085098;28;20005;-45
2023/07/07 19:36:21;;;;;;;;;;;;;;;;;;5086014;28;19923;-46
2023/07/07 19:38:47;;;;;;;;;;;;;;;;;;5091241;28;19964;-45
2023/07/07 19:41:12;;;;;;;;;;;;;;;;;;5095971;28;20013;-46
2023/07/07 19:43:38;;;;;;;;;;;;;;;;;;5084592;28;19923;-46
2023/07/07 19:46:05;;;;;;;;;;;;;;;;;;5083956;28;19916;-46
2023/07/07 19:48:31;;;;;;;;;;;;;;;;;;5103525;28;20016;-46
2023/07/07 19:50:57;;;;;;;;;;;;;;;;;;5066343;28;19970;-46
2023/07/07 19:53:23;;;;;;;;;;;;;;;;;;5063525;28;20298;-47
2023/07/07 19:55:54;;;;;;;;;;;;;;;;;;5083246;28;19923;-47
2023/07/07 19:58:20;;;;;;;;;;;;;;;;;;5081362;28;19926;-45
2023/07/07 20:00:46;;;;;;;;;;;;;;;;;;5066125;28;19990;-46
2023/07/07 20:03:11;;;;;;;;;;;;;;;;;;5086171;28;19919;-46
2023/07/07 20:05:37;;;;;;;;;;;;;;;;;;5088717;28;20469;-47
2023/07/07 20:08:04;;;;;;;;;;;;;;;;;;5082770;28;20224;-45
2023/07/07 20:10:30;;;;;;;;;;;;;;;;;;5066367;28;19922;-46
2023/07/07 20:12:57;;;;;;;;;;;;;;;;;;5090268;28;20306;-47
2023/07/07 20:15:23;;;;;;;;;;;;;;;;;;5097958;28;19934;-45
2023/07/07 20:17:49;;;;;;;;;;;;;;;;;;5096582;28;19916;-45
2023/07/07 20:20:15;;;;;;;;;;;;;;;;;;5089299;28;19912;-46
2023/07/07 20:22:42;;;;;;;;;;;;;;;;;;5090199;28;20271;-48
2023/07/07 20:25:08;;;;;;;;;;;;;;;;;;5070552;28;20007;-45
2023/07/07 20:27:34;;;;;;;;;;;;;;;;;;5092816;28;20454;-46
2023/07/07 20:30:00;;;;;;;;;;;;;;;;;;5092331;28;20236;-47
2023/07/07 20:32:25;;;;;;;;;;;;;;;;;;5087879;28;20453;-46
2023/07/07 20:34:52;;;;;;;;;;;;;;;;;;5098830;28;19969;-46
2023/07/07 20:37:18;;;;;;;;;;;;;;;;;;5085406;28;19954;-46
2023/07/07 20:39:44;;;;;;;;;;;;;;;;;;5085481;28;19944;-46
2023/07/07 20:42:11;;;;;;;;;;;;;;;;;;5091159;28;20305;-47
2023/07/07 20:44:38;;;;;;;;;;;;;;;;;;5089319;28;20395;-47
2023/07/07 20:47:05;;;;;;;;;;;;;;;;;;5090832;28;19966;-46
2023/07/07 20:49:32;;;;;;;;;;;;;;;;;;5090944;28;20356;-46
2023/07/07 20:51:57;;;;;;;;;;;;;;;;;;5072674;28;19961;-48
2023/07/07 20:54:24;;;;;;;;;;;;;;;;;;5091333;28;19905;-47
2023/07/07 20:56:50;;;;;;;;;;;;;;;;;;5091119;28;19935;-46
2023/07/07 20:59:16;;;;;;;;;;;;;;;;;;5090650;28;20576;-47
2023/07/07 21:01:42;;;;;;;;;;;;;;;;;;5090965;28;19954;-46
2023/07/07 21:04:08;;;;;;;;;;;;;;;;;;5090742;28;20302;-49
2023/07/07 21:06:36;;;;;;;;;;;;;;;;;;5091033;28;20392;-46
2023/07/07 21:09:02;;;;;;;;;;;;;;;;;;5072598;28;19931;-48
2023/07/07 21:11:27;;;;;;;;;;;;;;;;;;5090517;28;20426;-46
2023/07/07 21:13:53;;;;;;;;;;;;;;;;;;5091424;28;19919;-48
2023/07/07 21:16:20;;;;;;;;;;;;;;;;;;5072287;28;20006;-51
2023/07/07 21:18:46;;;;;;;;;;;;;;;;;;5072025;28;19908;-51
2023/07/07 21:21:12;;;;;;;;;;;;;;;;;;5090680;28;19983;-50
2023/07/07 21:23:39;;;;;;;;;;;;;;;;;;5086868;28;19916;-49
2023/07/07 21:26:05;;;;;;;;;;;;;;;;;;5069249;28;19919;-49
2023/07/07 21:28:31;;;;;;;;;;;;;;;;;;5087301;28;19920;-46
2023/07/07 21:30:57;;;;;;;;;;;;;;;;;;5068892;28;19912;-49
2023/07/07 21:33:23;;;;;;;;;;;;;;;;;;5069407;28;19943;-49
2023/07/07 21:35:50;;;;;;;;;;;;;;;;;;5068593;28;19916;-46
2023/07/07 21:38:15;;;;;;;;;;;;;;;;;;5086988;28;19908;-49
2023/07/07 21:40:41;;;;;;;;;;;;;;;;;;5087542;28;19915;-40
2023/07/07 21:43:09;;;;;;;;;;;;;;;;;;5086939;28;19915;-40
2023/07/07 21:45:34;;;;;;;;;;;;;;;;;;5087157;28;19912;-39
2023/07/07 21:48:01;;;;;;;;;;;;;;;;;;5086780;28;19951;-39